Time;durP1;ratioP1;P1;durP2;ratioP2;P2;SDS_P1;SDS_P2;PMS_P1;PMS_P2;Temp;Humidity;BMP_temperature;BMP_pressure;BME280_temperature;BME280_humidity;BME280_pressure;Samples;Min_cycle;Max_cycle;Signal;HPM_P1;HPM_P2
2021/12/18 00:01:49;;;;;;;0.82;0.80;;;20.70;48.90;;;;;;6210035;28;20069;-73
2021/12/18 00:04:50;;;;;;;1.00;0.90;;;20.70;48.90;;;;;;6196965;28;20022;-74
2021/12/18 00:07:50;;;;;;;1.60;0.95;;;20.70;48.90;;;;;;6211839;28;20076;-74
2021/12/18 00:10:52;;;;;;;0.88;0.77;;;20.70;48.90;;;;;;6221110;28;20076;-74
2021/12/18 00:13:53;;;;;;;1.17;0.90;;;20.70;48.90;;;;;;6221690;28;20037;-74
2021/12/18 00:16:54;;;;;;;0.93;0.63;;;20.70;49.00;;;;;;6219627;28;20069;-74
2021/12/18 00:19:54;;;;;;;1.42;1.02;;;20.70;48.90;;;;;;6221241;28;20049;-74
2021/12/18 00:22:56;;;;;;;1.02;0.93;;;20.70;49.00;;;;;;6220004;28;20095;-74
2021/12/18 00:25:56;;;;;;;1.10;1.00;;;20.70;48.90;;;;;;6221242;28;20054;-75
2021/12/18 00:28:57;;;;;;;1.55;0.80;;;20.70;49.00;;;;;;6212367;28;20029;-74
2021/12/18 00:31:58;;;;;;;1.35;0.90;;;20.70;49.00;;;;;;6202959;28;20096;-74
2021/12/18 00:34:58;;;;;;;1.20;0.95;;;20.70;49.00;;;;;;6197147;28;20042;-74
2021/12/18 00:38:04;;;;;;;3.08;1.00;;;20.70;49.00;;;;;;6212798;28;20049;-74
2021/12/18 00:44:05;;;;;;;1.40;0.80;;;20.70;49.00;;;;;;6220760;28;20025;-75
2021/12/18 00:47:06;;;;;;;0.88;0.70;;;20.70;49.00;;;;;;6218028;28;20497;-75
2021/12/18 00:50:10;;;;;;;1.45;0.90;;;20.70;49.00;;;;;;6220542;28;20041;-74
2021/12/18 00:53:11;;;;;;;1.23;0.83;;;20.70;49.00;;;;;;6220443;28;20092;-74
2021/12/18 00:56:12;;;;;;;0.80;0.73;;;20.70;49.00;;;;;;6220577;28;20743;-74
2021/12/18 00:59:13;;;;;;;1.40;0.90;;;20.70;49.00;;;;;;6220339;28;20022;-74
2021/12/18 01:02:14;;;;;;;1.25;1.00;;;20.70;49.00;;;;;;6219887;28;20058;-73
2021/12/18 01:05:15;;;;;;;1.27;1.00;;;20.70;49.00;;;;;;6219810;28;20037;-74
2021/12/18 01:08:18;;;;;;;0.68;0.65;;;20.70;49.00;;;;;;6210049;28;20299;-74
2021/12/18 01:14:34;;;;;;;1.40;0.90;;;20.70;49.00;;;;;;6219888;28;20041;-74
2021/12/18 01:24:13;;;;;;;1.27;0.85;;;20.70;49.00;;;;;;6219487;28;20076;-74
2021/12/18 01:27:13;;;;;;;1.02;0.80;;;20.70;49.00;;;;;;6218995;28;20496;-75
2021/12/18 01:30:15;;;;;;;1.00;0.80;;;20.70;49.00;;;;;;6216880;28;20032;-74
2021/12/18 01:33:16;;;;;;;0.80;0.70;;;20.70;49.10;;;;;;6198286;28;20030;-74
2021/12/18 01:36:16;;;;;;;0.75;0.68;;;20.70;49.10;;;;;;6198716;28;20018;-74
2021/12/18 01:39:17;;;;;;;1.00;0.75;;;20.70;49.10;;;;;;6219431;28;20026;-74
2021/12/18 01:51:59;;;;;;;1.02;0.70;;;20.70;49.10;;;;;;6219025;28;20041;-74
2021/12/18 01:55:00;;;;;;;0.90;0.70;;;20.70;49.10;;;;;;6220280;28;20087;-74
2021/12/18 01:58:01;;;;;;;0.57;0.52;;;20.70;49.10;;;;;;6219394;28;20050;-74
2021/12/18 02:01:03;;;;;;;0.85;0.80;;;20.70;49.10;;;;;;6218382;28;20069;-74
2021/12/18 02:04:04;;;;;;;1.23;0.80;;;20.70;49.10;;;;;;6197326;28;20033;-75
2021/12/18 02:07:07;;;;;;;1.33;0.65;;;20.70;49.10;;;;;;6205145;28;20029;-74
2021/12/18 02:10:16;;;;;;;0.60;0.60;;;20.70;49.10;;;;;;6219044;28;20084;-74
2021/12/18 02:19:56;;;;;;;1.05;0.80;;;20.70;49.10;;;;;;6218160;28;20030;-74
2021/12/18 02:22:57;;;;;;;1.00;0.77;;;20.70;49.10;;;;;;6218300;28;20045;-74
2021/12/18 02:25:57;;;;;;;0.90;0.80;;;20.70;49.10;;;;;;6218302;28;20022;-74
2021/12/18 02:29:01;;;;;;;0.80;0.68;;;20.70;49.10;;;;;;6218235;28;20486;-74
2021/12/18 02:32:02;;;;;;;1.10;0.70;;;20.70;49.10;;;;;;6203379;28;20635;-74
2021/12/18 02:35:05;;;;;;;1.23;0.60;;;20.70;49.90;;;;;;6194044;28;20038;-74
2021/12/18 02:38:12;;;;;;;0.82;0.75;;;20.70;49.20;;;;;;6211970;28;20030;-75
2021/12/18 02:41:29;;;;;;;0.70;0.68;;;20.70;49.20;;;;;;6218841;28;20044;-74
2021/12/18 02:44:30;;;;;;;0.63;0.63;;;20.70;49.20;;;;;;6169981;28;20038;-74
2021/12/18 02:47:31;;;;;;;1.00;0.65;;;20.70;49.20;;;;;;6192168;28;20473;-74
2021/12/18 02:50:32;;;;;;;0.82;0.60;;;20.70;49.20;;;;;;6216914;28;20022;-74
2021/12/18 02:53:33;;;;;;;0.60;0.60;;;20.70;49.20;;;;;;6217710;28;20025;-75
2021/12/18 02:56:35;;;;;;;0.90;0.70;;;20.70;49.20;;;;;;6216975;28;20058;-74
2021/12/18 02:59:44;;;;;;;0.90;0.68;;;20.70;49.20;;;;;;6218018;28;20076;-74
2021/12/18 03:02:45;;;;;;;1.05;0.80;;;20.60;49.10;;;;;;6206758;28;20042;-74
2021/12/18 03:06:00;;;;;;;0.63;0.60;;;20.60;49.10;;;;;;6193059;28;20053;-74
2021/12/18 03:25:01;;;;;;;0.60;0.60;;;20.60;49.10;;;;;;6219464;28;20037;-74
2021/12/18 03:28:05;;;;;;;1.05;0.85;;;20.70;49.30;;;;;;6217428;28;20068;-74
2021/12/18 03:31:06;;;;;;;0.77;0.70;;;20.60;49.10;;;;;;6205729;28;20070;-74
2021/12/18 03:34:07;;;;;;;1.02;0.50;;;20.60;49.10;;;;;;6197156;28;20027;-74
2021/12/18 03:37:07;;;;;;;0.85;0.70;;;20.70;49.30;;;;;;6202950;28;20674;-74
2021/12/18 03:40:12;;;;;;;0.57;0.57;;;20.60;49.20;;;;;;6218750;28;20033;-74
2021/12/18 03:43:13;;;;;;;0.50;0.50;;;20.60;49.10;;;;;;6217794;28;20033;-74
2021/12/18 03:46:14;;;;;;;1.05;0.60;;;20.60;49.20;;;;;;6216993;28;20030;-74
2021/12/18 03:49:14;;;;;;;0.65;0.65;;;20.60;49.20;;;;;;6217105;28;20117;-74
2021/12/18 03:52:15;;;;;;;0.55;0.55;;;20.60;49.20;;;;;;6217153;28;20561;-74
2021/12/18 03:55:16;;;;;;;0.50;0.50;;;20.60;49.40;;;;;;6217557;28;20030;-74
2021/12/18 03:58:17;;;;;;;0.60;0.60;;;20.60;49.20;;;;;;6219630;28;20046;-74
2021/12/18 04:01:17;;;;;;;0.63;0.57;;;20.60;49.20;;;;;;6221291;28;20041;-74
2021/12/18 04:04:18;;;;;;;0.65;0.60;;;20.60;49.20;;;;;;6221541;28;20025;-74
2021/12/18 04:07:18;;;;;;;1.00;0.63;;;20.60;49.20;;;;;;6212759;28;20060;-74
2021/12/18 04:10:19;;;;;;;0.70;0.52;;;20.60;49.20;;;;;;6214586;28;20030;-74
2021/12/18 04:13:19;;;;;;;0.60;0.50;;;20.60;49.20;;;;;;6209968;28;20113;-74
2021/12/18 04:16:21;;;;;;;1.23;0.73;;;20.60;49.30;;;;;;6220122;28;20116;-74
2021/12/18 04:19:21;;;;;;;0.88;0.68;;;20.60;49.20;;;;;;6220904;28;20014;-74
2021/12/18 04:22:22;;;;;;;0.63;0.40;;;20.60;49.20;;;;;;6221453;28;20037;-74
2021/12/18 04:25:23;;;;;;;1.15;0.77;;;20.60;49.20;;;;;;6220871;28;20481;-74
2021/12/18 04:28:24;;;;;;;0.70;0.52;;;20.60;49.20;;;;;;6220255;28;20031;-74
2021/12/18 04:31:25;;;;;;;0.50;0.50;;;20.60;49.20;;;;;;6209819;28;20060;-74
2021/12/18 04:34:25;;;;;;;0.40;0.40;;;20.60;49.20;;;;;;6197145;28;20030;-74
2021/12/18 04:37:26;;;;;;;0.90;0.70;;;20.60;49.20;;;;;;6208722;28;20357;-74
2021/12/18 04:40:27;;;;;;;0.60;0.60;;;20.60;49.20;;;;;;6221553;28;20017;-74
2021/12/18 04:43:27;;;;;;;0.63;0.60;;;20.60;49.20;;;;;;6220844;28;20389;-74
2021/12/18 04:46:28;;;;;;;0.70;0.70;;;20.60;49.30;;;;;;6220623;28;20560;-74
2021/12/18 04:49:28;;;;;;;0.60;0.60;;;20.60;49.20;;;;;;6220258;28;20481;-74
2021/12/18 04:52:29;;;;;;;0.70;0.60;;;20.60;49.30;;;;;;6220322;28;20026;-74
2021/12/18 04:55:29;;;;;;;0.65;0.65;;;20.60;49.20;;;;;;6200833;28;20519;-74
2021/12/18 04:58:30;;;;;;;0.60;0.60;;;20.60;49.20;;;;;;6215481;28;20050;-74
2021/12/18 05:01:36;;;;;;;0.75;0.50;;;20.60;49.20;;;;;;6215947;28;20030;-74
2021/12/18 05:04:36;;;;;;;0.60;0.60;;;20.60;49.30;;;;;;6196508;28;20084;-74
2021/12/18 05:07:37;;;;;;;0.40;0.30;;;20.60;49.20;;;;;;6208128;28;20022;-74
2021/12/18 05:10:37;;;;;;;0.70;0.60;;;20.60;49.30;;;;;;6217835;28;20582;-74
2021/12/18 05:13:38;;;;;;;0.43;0.43;;;20.60;49.30;;;;;;6219404;28;20033;-74
2021/12/18 05:16:39;;;;;;;0.82;0.63;;;20.60;49.30;;;;;;6219554;28;20497;-74
2021/12/18 05:19:39;;;;;;;0.95;0.70;;;20.60;49.30;;;;;;6219135;28;20400;-74
2021/12/18 05:22:40;;;;;;;0.60;0.60;;;20.60;49.30;;;;;;6219503;28;20041;-74
2021/12/18 05:25:41;;;;;;;0.40;0.40;;;20.60;49.30;;;;;;6219383;28;20057;-74
2021/12/18 05:28:42;;;;;;;0.80;0.60;;;20.60;49.30;;;;;;6215449;28;20060;-74
2021/12/18 05:31:43;;;;;;;0.50;0.50;;;20.60;49.30;;;;;;6207351;28;20038;-74
2021/12/18 05:34:44;;;;;;;0.40;0.40;;;20.60;49.20;;;;;;6195876;28;20023;-74
2021/12/18 05:37:48;;;;;;;0.57;0.43;;;20.60;49.20;;;;;;6210243;28;20025;-74
2021/12/18 05:40:48;;;;;;;0.37;0.37;;;20.60;49.20;;;;;;6220660;28;20130;-74
2021/12/18 05:43:49;;;;;;;0.50;0.50;;;20.60;49.30;;;;;;6219472;28;20034;-74
2021/12/18 05:46:51;;;;;;;0.65;0.50;;;20.60;49.20;;;;;;6211391;28;20255;-75
2021/12/18 05:49:51;;;;;;;0.50;0.50;;;20.60;49.20;;;;;;6219414;28;20052;-74
2021/12/18 05:52:53;;;;;;;0.45;0.40;;;20.60;49.30;;;;;;6216894;28;20105;-74
2021/12/18 05:55:54;;;;;;;0.40;0.40;;;20.60;49.30;;;;;;6219045;28;20032;-74
2021/12/18 05:58:55;;;;;;;0.50;0.50;;;20.60;49.30;;;;;;6218622;28;20512;-74
2021/12/18 06:01:55;;;;;;;0.52;0.52;;;20.60;49.30;;;;;;6204427;28;20410;-74
2021/12/18 06:04:56;;;;;;;0.43;0.40;;;20.60;49.30;;;;;;6194029;28;20030;-74
2021/12/18 06:07:58;;;;;;;0.30;0.30;;;20.60;49.30;;;;;;6211190;28;20489;-74
2021/12/18 06:11:07;;;;;;;0.65;0.60;;;20.60;49.20;;;;;;6218793;28;20076;-74
2021/12/18 06:14:08;;;;;;;0.82;0.60;;;20.60;49.30;;;;;;6218359;28;20121;-74
2021/12/18 06:17:09;;;;;;;0.40;0.40;;;20.60;49.30;;;;;;6218553;28;20029;-73
2021/12/18 06:20:10;;;;;;;0.50;0.40;;;20.60;49.30;;;;;;6217809;28;20554;-74
2021/12/18 06:23:14;;;;;;;0.77;0.43;;;20.60;49.30;;;;;;6220459;28;20076;-74
2021/12/18 06:26:15;;;;;;;0.32;0.32;;;20.60;49.30;;;;;;6217735;28;20393;-74
2021/12/18 06:29:16;;;;;;;0.45;0.45;;;20.60;49.30;;;;;;6218609;28;20211;-74
2021/12/18 06:32:16;;;;;;;0.40;0.40;;;20.60;49.30;;;;;;6202165;28;20379;-74
2021/12/18 06:35:17;;;;;;;0.60;0.60;;;20.60;49.20;;;;;;6190194;28;20551;-74
2021/12/18 06:38:17;;;;;;;0.35;0.35;;;20.60;49.20;;;;;;6198448;28;20034;-74
2021/12/18 06:41:18;;;;;;;0.40;0.40;;;20.60;50.00;;;;;;6194057;28;20093;-74
2021/12/18 06:44:18;;;;;;;0.40;0.40;;;20.60;49.30;;;;;;6193743;28;20032;-74
2021/12/18 06:47:19;;;;;;;0.40;0.40;;;20.60;49.20;;;;;;6193208;28;20334;-74
2021/12/18 06:50:20;;;;;;;0.50;0.50;;;20.60;49.20;;;;;;6194571;28;20058;-74
2021/12/18 06:53:20;;;;;;;0.30;0.30;;;20.60;49.20;;;;;;6193591;28;20477;-74
2021/12/18 06:56:21;;;;;;;0.50;0.50;;;20.60;49.20;;;;;;6193790;28;20104;-74
2021/12/18 06:59:21;;;;;;;0.50;0.50;;;20.60;49.10;;;;;;6193281;28;20557;-73
2021/12/18 07:02:22;;;;;;;0.68;0.52;;;20.60;49.20;;;;;;6193151;28;20041;-74
2021/12/18 07:05:23;;;;;;;0.50;0.50;;;20.60;49.20;;;;;;6194250;28;20042;-74
2021/12/18 07:08:23;;;;;;;0.38;0.38;;;20.60;49.20;;;;;;6184387;28;20098;-73
2021/12/18 07:11:24;;;;;;;0.65;0.50;;;20.60;49.20;;;;;;6193815;28;20037;-74
2021/12/18 07:14:25;;;;;;;0.50;0.50;;;20.60;49.20;;;;;;6193613;28;20470;-74
2021/12/18 07:17:25;;;;;;;0.57;0.50;;;20.60;49.20;;;;;;6192679;28;20031;-74
2021/12/18 07:20:27;;;;;;;0.55;0.45;;;20.60;49.20;;;;;;6194463;28;20140;-74
2021/12/18 07:23:28;;;;;;;0.70;0.60;;;20.60;49.20;;;;;;6193532;28;20066;-74
2021/12/18 07:26:30;;;;;;;0.50;0.47;;;20.60;49.30;;;;;;6191170;28;20042;-74
2021/12/18 07:29:31;;;;;;;1.90;0.60;;;20.60;49.30;;;;;;6191825;28;20026;-74
2021/12/18 07:32:31;;;;;;;0.93;0.50;;;20.60;49.20;;;;;;6171889;28;20109;-74
2021/12/18 07:35:32;;;;;;;0.65;0.65;;;20.60;49.20;;;;;;6174551;28;20046;-74
2021/12/18 07:38:32;;;;;;;0.50;0.40;;;20.60;49.20;;;;;;6193802;28;20298;-74
2021/12/18 07:41:33;;;;;;;0.40;0.40;;;20.60;49.20;;;;;;6195910;28;20046;-74
2021/12/18 07:44:34;;;;;;;1.52;0.52;;;20.60;49.20;;;;;;6195570;28;20117;-75
2021/12/18 07:47:34;;;;;;;0.70;0.57;;;20.60;49.20;;;;;;6197103;28;20142;-74
2021/12/18 07:50:35;;;;;;;0.52;0.40;;;20.60;49.20;;;;;;6195848;28;20035;-74
2021/12/18 07:53:36;;;;;;;0.50;0.50;;;20.60;49.20;;;;;;6196076;28;20042;-74
2021/12/18 07:56:36;;;;;;;0.80;0.60;;;20.60;49.20;;;;;;6196947;28;20058;-74
2021/12/18 07:59:37;;;;;;;0.52;0.50;;;20.60;49.20;;;;;;6197361;28;20030;-74
2021/12/18 08:02:38;;;;;;;0.40;0.40;;;20.60;49.10;;;;;;6185350;28;20395;-74
2021/12/18 08:05:38;;;;;;;0.40;0.40;;;20.60;49.20;;;;;;6173126;28;20038;-74
2021/12/18 08:08:39;;;;;;;0.40;0.40;;;20.60;49.20;;;;;;6195222;28;20490;-74
2021/12/18 08:11:39;;;;;;;0.52;0.50;;;20.60;49.20;;;;;;6198003;28;20034;-74
2021/12/18 08:14:40;;;;;;;0.85;0.60;;;20.60;49.10;;;;;;6197219;28;20370;-74
2021/12/18 08:17:40;;;;;;;0.70;0.60;;;20.60;49.10;;;;;;6194663;28;20793;-74
2021/12/18 08:20:41;;;;;;;0.43;0.43;;;20.60;49.10;;;;;;6195134;28;20096;-74
2021/12/18 08:23:42;;;;;;;0.50;0.50;;;20.60;49.10;;;;;;6196975;28;20445;-74
2021/12/18 08:26:42;;;;;;;0.50;0.50;;;20.60;49.10;;;;;;6196735;28;20101;-74
2021/12/18 08:29:43;;;;;;;0.40;0.40;;;20.60;49.10;;;;;;6196985;28;20034;-74
2021/12/18 08:32:43;;;;;;;0.40;0.32;;;20.60;49.10;;;;;;6176589;28;20035;-74
2021/12/18 08:35:44;;;;;;;0.98;0.60;;;20.60;49.50;;;;;;6170613;28;20033;-74
2021/12/18 08:38:44;;;;;;;0.50;0.50;;;20.60;49.10;;;;;;6166039;28;20022;-74
2021/12/18 08:41:45;;;;;;;0.40;0.40;;;20.60;49.10;;;;;;6189393;28;20034;-74
2021/12/18 08:44:46;;;;;;;0.50;0.50;;;20.60;49.20;;;;;;6186571;28;20029;-75
2021/12/18 08:47:47;;;;;;;1.92;0.55;;;20.60;48.70;;;;;;6194317;28;20031;-73
2021/12/18 08:50:48;;;;;;;6.57;0.52;;;20.50;48.00;;;;;;6194956;28;20026;-74
2021/12/18 08:53:48;;;;;;;3.40;0.98;;;20.50;46.80;;;;;;6190616;28;20061;-74
2021/12/18 08:56:49;;;;;;;2.15;0.90;;;20.50;46.40;;;;;;6186829;28;20042;-74
2021/12/18 08:59:49;;;;;;;5.25;1.08;;;20.60;45.90;;;;;;6189536;28;20067;-75
2021/12/18 09:02:54;;;;;;;1.85;0.80;;;20.60;46.50;;;;;;6193986;28;20118;-74
2021/12/18 09:05:55;;;;;;;1.45;0.68;;;20.60;47.00;;;;;;6179377;28;20030;-74
2021/12/18 09:08:56;;;;;;;4.50;0.77;;;20.60;47.30;;;;;;6182114;28;20105;-75
2021/12/18 09:11:56;;;;;;;0.93;0.70;;;20.60;47.50;;;;;;6187582;28;20030;-73
2021/12/18 09:14:57;;;;;;;1.83;0.88;;;20.60;47.70;;;;;;6183716;28;20082;-74
2021/12/18 09:17:57;;;;;;;1.05;0.70;;;20.60;47.80;;;;;;6181143;28;20030;-74
2021/12/18 09:20:58;;;;;;;4.93;0.52;;;20.60;48.00;;;;;;6175460;28;20081;-74
2021/12/18 09:23:59;;;;;;;1.35;0.70;;;20.60;48.00;;;;;;6188218;28;20034;-75
2021/12/18 09:26:59;;;;;;;1.98;0.80;;;20.60;48.00;;;;;;6188270;28;20525;-75
2021/12/18 09:30:00;;;;;;;3.78;0.60;;;20.60;48.00;;;;;;6192007;28;20030;-75
2021/12/18 09:33:01;;;;;;;2.70;0.73;;;20.60;48.10;;;;;;6169950;28;20022;-74
2021/12/18 09:36:02;;;;;;;0.93;0.60;;;20.60;48.10;;;;;;6171787;28;20085;-74
2021/12/18 09:39:04;;;;;;;2.08;0.55;;;20.60;48.10;;;;;;6193686;28;20029;-74
2021/12/18 09:42:05;;;;;;;2.13;0.90;;;20.60;49.00;;;;;;6177406;28;20041;-75
2021/12/18 09:45:07;;;;;;;1.33;0.73;;;20.60;48.30;;;;;;6187722;28;20018;-75
2021/12/18 09:48:07;;;;;;;3.35;0.75;;;20.60;48.40;;;;;;6188168;28;20069;-75
2021/12/18 09:51:18;;;;;;;1.23;0.82;;;20.60;48.50;;;;;;6177228;28;20023;-75
2021/12/18 09:54:19;;;;;;;2.88;0.60;;;20.60;48.60;;;;;;6176840;28;20030;-75
2021/12/18 09:57:19;;;;;;;4.22;0.68;;;20.60;48.50;;;;;;6176478;28;20061;-75
2021/12/18 10:00:23;;;;;;;2.10;0.68;;;20.60;48.60;;;;;;6183572;28;20033;-74
2021/12/18 10:03:49;;;;;;;0.80;0.60;;;20.60;48.50;;;;;;6188648;28;20267;-74
2021/12/18 10:06:49;;;;;;;1.75;0.55;;;20.60;48.50;;;;;;6170893;28;20038;-75
2021/12/18 10:09:53;;;;;;;1.08;0.40;;;20.70;48.60;;;;;;6181146;28;20027;-75
2021/12/18 10:13:03;;;;;;;3.17;0.68;;;20.60;48.60;;;;;;6183038;28;20030;-75
2021/12/18 10:16:09;;;;;;;1.85;0.70;;;20.60;48.60;;;;;;6176735;28;20056;-75
2021/12/18 10:19:26;;;;;;;1.40;0.73;;;20.60;48.10;;;;;;6190086;28;20022;-74
2021/12/18 10:22:27;;;;;;;1.38;0.80;;;20.60;47.20;;;;;;6192273;28;20429;-75
2021/12/18 10:25:30;;;;;;;3.25;1.00;;;20.60;47.00;;;;;;6185406;28;20041;-75
2021/12/18 10:28:45;;;;;;;3.08;1.10;;;20.60;46.60;;;;;;6189626;28;20030;-74
2021/12/18 10:31:46;;;;;;;2.25;0.75;;;20.50;46.30;;;;;;6173476;28;20084;-75
2021/12/18 10:34:51;;;;;;;3.60;1.00;;;20.50;46.30;;;;;;6184123;28;20236;-75
2021/12/18 10:37:51;;;;;;;;;;;20.50;46.00;;;;;;6179193;28;20052;-75
2021/12/18 10:40:52;;;;;;;4.70;1.10;;;20.50;46.10;;;;;;6168368;28;20313;-75
2021/12/18 10:44:13;;;;;;;2.25;0.90;;;20.50;45.20;;;;;;6186206;28;20050;-75
2021/12/18 10:47:14;;;;;;;6.05;1.23;;;20.60;45.50;;;;;;6179262;28;20065;-75
2021/12/18 10:50:28;;;;;;;1.63;0.90;;;20.50;45.40;;;;;;6188780;28;20034;-75
2021/12/18 10:53:30;;;;;;;3.92;1.00;;;20.60;45.60;;;;;;6190063;28;20143;-76
2021/12/18 10:56:40;;;;;;;3.60;0.70;;;20.60;46.00;;;;;;6180685;28;20536;-74
2021/12/18 10:59:48;;;;;;;9.00;0.70;;;20.60;46.30;;;;;;6169801;28;20073;-75
2021/12/18 11:02:48;;;;;;;4.18;1.15;;;20.60;46.50;;;;;;6191671;28;20114;-75
2021/12/18 11:06:19;;;;;;;2.50;1.10;;;20.60;46.70;;;;;;6175754;28;20030;-74
2021/12/18 11:09:28;;;;;;;3.10;0.93;;;20.60;46.90;;;;;;6184153;28;20430;-74
2021/12/18 11:15:48;;;;;;;4.47;1.15;;;20.60;47.00;;;;;;6175073;28;20394;-75
2021/12/18 11:18:49;;;;;;;4.35;1.00;;;20.60;46.70;;;;;;6190703;28;20054;-74
2021/12/18 11:21:55;;;;;;;5.65;1.20;;;20.60;46.80;;;;;;6194977;28;20080;-75
2021/12/18 11:25:22;;;;;;;6.88;0.80;;;20.60;46.90;;;;;;6187394;28;20472;-75
2021/12/18 11:28:27;;;;;;;6.35;0.80;;;20.60;47.00;;;;;;6189324;28;20030;-75
2021/12/18 11:31:29;;;;;;;2.60;0.70;;;20.60;47.10;;;;;;6182149;28;20026;-75
2021/12/18 11:34:29;;;;;;;4.93;0.70;;;20.60;47.10;;;;;;6178930;28;20031;-75
2021/12/18 11:37:43;;;;;;;2.05;0.80;;;20.60;47.20;;;;;;6182972;28;20039;-75
2021/12/18 11:40:44;;;;;;;2.00;0.77;;;20.60;47.30;;;;;;6165171;28;20034;-75
2021/12/18 11:43:46;;;;;;;3.55;0.80;;;20.60;48.00;;;;;;6178925;28;20553;-75
2021/12/18 11:46:47;;;;;;;2.38;1.00;;;20.60;47.40;;;;;;6185384;28;20501;-74
2021/12/18 11:49:48;;;;;;;2.83;0.80;;;20.60;47.40;;;;;;6193596;28;20262;-75
2021/12/18 11:53:02;;;;;;;3.95;0.68;;;20.60;47.30;;;;;;6195768;28;20030;-75
2021/12/18 11:56:03;;;;;;;1.60;0.80;;;20.60;47.40;;;;;;6195215;28;20200;-76
2021/12/18 11:59:04;;;;;;;1.90;0.90;;;20.60;47.50;;;;;;6193409;28;20530;-75
2021/12/18 12:02:05;;;;;;;1.17;0.65;;;20.60;47.50;;;;;;6183606;28;20093;-75
2021/12/18 12:05:06;;;;;;;7.65;1.00;;;20.60;47.50;;;;;;6170325;28;20438;-75
2021/12/18 12:08:28;;;;;;;0.60;0.57;;;20.60;47.50;;;;;;6187939;28;20034;-75
2021/12/18 12:11:28;;;;;;;3.58;0.70;;;20.60;47.60;;;;;;6182099;28;20038;-75
2021/12/18 12:14:31;;;;;;;0.80;0.60;;;20.60;47.60;;;;;;6187865;28;20034;-75
2021/12/18 12:17:53;;;;;;;1.63;0.80;;;20.60;47.70;;;;;;6179074;28;20057;-74
2021/12/18 12:20:53;;;;;;;1.48;0.52;;;20.70;47.80;;;;;;6194055;28;20283;-75
2021/12/18 12:24:01;;;;;;;0.85;0.55;;;20.70;47.80;;;;;;6191966;28;20092;-75
2021/12/18 12:27:34;;;;;;;2.47;0.60;;;20.70;47.90;;;;;;6189898;28;20030;-74
2021/12/18 12:30:43;;;;;;;1.02;0.70;;;20.70;47.90;;;;;;6161961;28;20256;-75
2021/12/18 12:33:45;;;;;;;3.05;0.60;;;20.70;47.90;;;;;;6174539;28;20037;-75
2021/12/18 12:36:46;;;;;;;3.60;0.77;;;20.70;47.90;;;;;;6189759;28;20030;-75
2021/12/18 12:40:03;;;;;;;0.75;0.52;;;20.70;47.90;;;;;;6186772;28;20081;-75
2021/12/18 12:43:17;;;;;;;0.40;0.40;;;20.70;48.00;;;;;;6179796;28;20038;-75
2021/12/18 12:46:20;;;;;;;3.15;0.70;;;20.70;48.00;;;;;;6192056;28;20653;-75
2021/12/18 12:49:28;;;;;;;2.70;0.60;;;20.70;48.00;;;;;;6186970;28;20023;-75
2021/12/18 12:52:30;;;;;;;1.35;0.90;;;20.70;48.00;;;;;;6181978;28;20034;-75
2021/12/18 12:55:42;;;;;;;1.10;0.82;;;20.70;48.00;;;;;;6187944;28;20529;-74
2021/12/18 12:58:42;;;;;;;2.10;0.82;;;20.70;48.10;;;;;;6177712;28;20607;-75
2021/12/18 13:01:45;;;;;;;6.65;1.00;;;20.70;48.10;;;;;;6189150;28;20065;-71
2021/12/18 13:04:45;;;;;;;7.72;0.98;;;20.70;48.60;;;;;;6179116;28;20041;-71
2021/12/18 13:07:45;;;;;;;9.43;0.93;;;20.80;48.50;;;;;;6174865;28;20492;-72
2021/12/18 13:10:49;;;;;;;8.57;1.02;;;20.90;48.80;;;;;;6176000;28;20041;-73
2021/12/18 13:13:52;;;;;;;3.13;0.95;;;20.90;48.70;;;;;;6187354;28;20486;-73
2021/12/18 13:16:52;;;;;;;3.60;0.93;;;20.80;48.10;;;;;;6173289;28;20064;-73
2021/12/18 13:19:58;;;;;;;4.60;1.13;;;20.90;48.20;;;;;;6191673;28;20030;-73
2021/12/18 13:22:59;;;;;;;2.85;1.23;;;20.90;48.10;;;;;;6193566;28;20030;-74
2021/12/18 13:25:59;;;;;;;2.13;0.93;;;20.90;48.10;;;;;;6185494;28;20097;-73
2021/12/18 13:29:08;;;;;;;3.15;1.00;;;20.90;48.10;;;;;;6192288;28;20069;-72
2021/12/18 13:32:08;;;;;;;2.92;0.95;;;20.90;48.30;;;;;;6175682;28;20267;-72
2021/12/18 13:35:15;;;;;;;1.20;0.90;;;21.00;48.20;;;;;;6176392;28;20462;-72
2021/12/18 13:38:15;;;;;;;1.85;1.00;;;21.00;48.10;;;;;;6186434;28;20022;-72
2021/12/18 13:41:18;;;;;;;2.65;1.02;;;21.00;48.00;;;;;;6187548;28;20439;-72
2021/12/18 13:44:19;;;;;;;6.15;1.15;;;21.00;48.00;;;;;;6186970;28;20420;-72
2021/12/18 13:47:23;;;;;;;4.88;1.38;;;21.00;48.00;;;;;;6193097;28;20092;-72
2021/12/18 13:50:24;;;;;;;3.07;1.33;;;21.10;48.10;;;;;;6189812;28;20601;-75
2021/12/18 13:53:25;;;;;;;109.30;8.18;;;21.00;48.00;;;;;;6192751;28;20026;-72
2021/12/18 13:56:31;;;;;;;30.30;3.30;;;21.10;49.20;;;;;;6193344;28;20096;-72
2021/12/18 13:59:32;;;;;;;19.65;2.53;;;21.10;48.30;;;;;;6180812;28;20034;-73
2021/12/18 14:02:32;;;;;;;33.13;4.25;;;21.10;49.10;;;;;;6182989;28;20034;-73
2021/12/18 14:05:33;;;;;;;43.60;5.55;;;21.20;49.00;;;;;;6167378;28;20046;-73
2021/12/18 14:08:38;;;;;;;13.32;2.85;;;21.20;48.70;;;;;;6178184;28;20041;-73
2021/12/18 14:12:12;;;;;;;15.68;2.75;;;21.20;48.20;;;;;;6187679;28;20531;-73
2021/12/18 14:15:18;;;;;;;12.05;2.63;;;21.20;48.30;;;;;;6163932;28;20038;-72
2021/12/18 14:18:38;;;;;;;12.85;2.35;;;21.20;48.30;;;;;;6172375;28;20271;-73
2021/12/18 14:21:48;;;;;;;5.10;2.08;;;21.20;48.30;;;;;;6168999;28;20296;-72
2021/12/18 14:24:59;;;;;;;7.88;1.88;;;21.20;48.30;;;;;;6174920;28;20031;-72
2021/12/18 14:27:59;;;;;;;9.30;2.08;;;21.20;48.30;;;;;;6177966;28;20080;-73
2021/12/18 14:31:00;;;;;;;6.07;1.67;;;21.20;48.30;;;;;;6177880;28;20026;-73
2021/12/18 14:34:11;;;;;;;8.57;1.90;;;21.20;48.30;;;;;;6170871;28;20565;-72
2021/12/18 14:37:19;;;;;;;8.27;2.15;;;21.20;48.40;;;;;;6168988;28;20550;-72
2021/12/18 14:40:23;;;;;;;7.15;1.45;;;21.20;48.40;;;;;;6175014;28;20117;-73
2021/12/18 14:43:25;;;;;;;5.05;2.20;;;21.20;48.40;;;;;;6180182;28;20323;-73
2021/12/18 14:46:25;;;;;;;7.07;2.22;;;21.20;48.50;;;;;;6177741;28;20106;-73
2021/12/18 14:49:26;;;;;;;6.10;1.52;;;21.20;48.50;;;;;;6175751;28;20363;-73
2021/12/18 14:52:28;;;;;;;7.97;1.70;;;21.20;48.60;;;;;;6184927;28;20037;-72
2021/12/18 14:55:52;;;;;;;6.15;1.40;;;21.20;48.50;;;;;;6190916;28;20029;-73
2021/12/18 14:58:52;;;;;;;7.10;1.38;;;21.20;48.50;;;;;;6182998;28;20541;-73
2021/12/18 15:02:11;;;;;;;4.22;1.13;;;21.20;48.50;;;;;;6187828;28;20030;-73
2021/12/18 15:05:12;;;;;;;7.95;1.40;;;21.20;48.50;;;;;;6172798;28;20047;-73
2021/12/18 15:08:16;;;;;;;3.00;1.33;;;21.20;48.50;;;;;;6162886;28;20038;-73
2021/12/18 15:11:44;;;;;;;4.87;1.50;;;21.20;48.50;;;;;;6168321;28;20065;-73
2021/12/18 15:14:44;;;;;;;4.18;1.35;;;21.10;48.50;;;;;;6182809;28;20343;-73
2021/12/18 15:17:45;;;;;;;2.58;0.95;;;21.10;48.60;;;;;;6190432;28;20109;-73
2021/12/18 15:20:45;;;;;;;4.25;1.35;;;21.10;48.60;;;;;;6190619;28;20038;-73
2021/12/18 15:23:47;;;;;;;4.30;1.50;;;21.10;48.80;;;;;;6191452;28;20034;-73
2021/12/18 15:26:51;;;;;;;3.92;1.20;;;21.10;48.80;;;;;;6185656;28;20076;-73
2021/12/18 15:29:51;;;;;;;3.27;1.20;;;21.00;48.70;;;;;;6178639;28;20126;-73
2021/12/18 15:32:54;;;;;;;3.20;1.23;;;21.00;48.70;;;;;;6177887;28;20046;-72
2021/12/18 15:35:54;;;;;;;3.42;1.45;;;21.10;49.00;;;;;;6176671;28;20038;-72
2021/12/18 15:39:00;;;;;;;2.53;1.02;;;21.10;48.90;;;;;;6182705;28;20417;-73
2021/12/18 15:42:00;;;;;;;3.60;1.00;;;21.10;48.70;;;;;;6188931;28;20045;-73
2021/12/18 15:45:02;;;;;;;4.00;1.23;;;21.00;48.70;;;;;;6171774;28;20031;-73
2021/12/18 15:48:03;;;;;;;4.07;1.10;;;21.00;48.70;;;;;;6180623;28;20023;-73
2021/12/18 15:51:04;;;;;;;2.58;1.10;;;21.00;48.80;;;;;;6191113;28;20489;-73
2021/12/18 15:54:06;;;;;;;2.42;1.38;;;21.00;48.80;;;;;;6192775;28;20018;-73
2021/12/18 15:57:07;;;;;;;1.33;0.80;;;21.00;48.90;;;;;;6195606;28;20097;-73
2021/12/18 16:00:09;;;;;;;2.35;1.23;;;21.00;48.90;;;;;;6179739;28;20045;-73
2021/12/18 16:03:09;;;;;;;1.73;1.05;;;21.00;48.90;;;;;;6184813;28;20039;-72
2021/12/18 16:06:13;;;;;;;2.60;1.20;;;21.00;48.90;;;;;;6185354;28;20061;-73
2021/12/18 16:09:13;;;;;;;3.45;0.90;;;21.00;49.10;;;;;;6176987;28;20035;-73
2021/12/18 16:12:14;;;;;;;2.67;0.80;;;20.90;49.10;;;;;;6170837;28;20031;-72
2021/12/18 16:15:15;;;;;;;2.00;1.00;;;21.00;49.20;;;;;;6195146;28;20478;-73
2021/12/18 16:18:16;;;;;;;2.80;0.98;;;21.00;49.20;;;;;;6193017;28;20045;-73
2021/12/18 16:21:18;;;;;;;2.92;0.80;;;21.00;49.10;;;;;;6194470;28;20023;-73
2021/12/18 16:24:19;;;;;;;5.43;1.08;;;21.00;49.10;;;;;;6192758;28;20030;-73
2021/12/18 16:27:19;;;;;;;3.10;0.80;;;21.00;49.10;;;;;;6180965;28;20035;-73
2021/12/18 16:30:20;;;;;;;2.17;0.82;;;21.00;49.10;;;;;;6168842;28;20031;-73
2021/12/18 16:33:27;;;;;;;1.95;0.90;;;20.90;49.00;;;;;;6170171;28;20023;-73
2021/12/18 16:36:33;;;;;;;1.67;1.00;;;20.90;49.00;;;;;;6187845;28;20026;-73
2021/12/18 16:39:36;;;;;;;2.00;0.85;;;20.90;49.10;;;;;;6191565;28;20117;-73
2021/12/18 16:42:36;;;;;;;1.00;0.70;;;20.90;49.10;;;;;;6175473;28;20137;-73